createdAt,value
2022-12-15T00:01:26.528Z,100571.00
2022-12-15T00:07:06.587Z,100566.81
2022-12-15T00:12:46.589Z,100578.16
2022-12-15T00:18:26.696Z,100581.16
2022-12-15T00:24:06.674Z,100585.00
2022-12-15T00:29:46.592Z,100590.81
2022-12-15T00:35:27.143Z,100609.59
2022-12-15T00:40:51.376Z,100596.00
2022-12-15T00:46:32.434Z,100601.19
2022-12-15T00:52:12.436Z,100600.00
2022-12-15T00:57:52.756Z,100593.28
2022-12-15T01:03:39.115Z,100605.09
2022-12-15T01:09:20.215Z,100599.47
2022-12-15T01:15:00.718Z,100619.56
2022-12-15T01:20:22.455Z,100606.47
2022-12-15T01:25:44.120Z,100609.75
2022-12-15T01:31:12.313Z,100616.84
2022-12-15T01:36:34.072Z,100613.47
2022-12-15T01:41:55.856Z,100628.63
2022-12-15T01:47:18.942Z,100620.81
2022-12-15T01:52:40.782Z,100634.06
2022-12-15T01:58:08.470Z,100632.63
2022-12-15T02:03:32.043Z,100641.41
2022-12-15T02:08:57.281Z,100643.34
2022-12-15T02:14:44.741Z,100657.06
2022-12-15T02:20:30.902Z,100656.44
2022-12-15T02:26:29.973Z,100655.25
2022-12-15T02:31:59.409Z,100663.44
2022-12-15T02:37:27.500Z,100662.59
2022-12-15T02:42:54.286Z,100659.25
2022-12-15T02:48:18.891Z,100656.97
2022-12-15T02:53:58.657Z,100672.94
2022-12-15T02:59:32.505Z,100674.03
2022-12-15T03:04:55.294Z,100678.13
2022-12-15T03:10:18.016Z,100682.22
2022-12-15T03:15:40.001Z,100676.09
2022-12-15T03:21:01.785Z,100670.19
2022-12-15T03:26:23.528Z,100681.75
2022-12-15T03:31:45.327Z,100682.81
2022-12-15T03:37:07.023Z,100671.16
2022-12-15T03:42:47.015Z,100678.84
2022-12-15T03:48:08.728Z,100678.25
2022-12-15T03:53:30.768Z,100674.88
2022-12-15T03:58:52.754Z,100678.97
2022-12-15T04:04:15.387Z,100681.97
2022-12-15T04:09:37.583Z,100693.50
2022-12-15T04:14:59.301Z,100693.97
2022-12-15T04:20:22.001Z,100703.34
2022-12-15T04:26:02.463Z,100698.06
2022-12-15T04:31:46.575Z,100707.69
2022-12-15T04:37:31.112Z,100704.31
2022-12-15T04:43:11.475Z,100723.91
2022-12-15T04:48:51.602Z,100714.97
2022-12-15T04:54:32.182Z,100714.59
2022-12-15T05:00:12.176Z,100703.78
2022-12-15T05:05:52.263Z,100708.47
2022-12-15T05:11:32.405Z,100706.19
2022-12-15T05:17:12.715Z,100713.84
2022-12-15T05:22:53.296Z,100718.78
2022-12-15T05:28:34.240Z,100725.38
2022-12-15T05:34:01.066Z,100740.25
2022-12-15T05:39:27.209Z,100736.91
2022-12-15T05:44:49.320Z,100742.66
2022-12-15T05:50:11.564Z,100745.66
2022-12-15T05:55:33.229Z,100747.56
2022-12-15T06:00:54.955Z,100745.06
2022-12-15T06:06:16.703Z,100748.06
2022-12-15T06:11:38.440Z,100752.72
2022-12-15T06:17:00.267Z,100746.38
2022-12-15T06:22:22.033Z,100741.69
2022-12-15T06:27:43.663Z,100758.25
2022-12-15T06:33:05.381Z,100749.97
2022-12-15T06:38:29.405Z,100751.03
2022-12-15T06:43:52.648Z,100756.56
2022-12-15T06:49:14.804Z,100744.94
2022-12-15T06:54:36.469Z,100731.13
2022-12-15T06:59:58.108Z,100741.50
2022-12-15T07:05:21.674Z,100744.53
2022-12-15T07:10:44.638Z,100741.91
2022-12-15T07:16:07.779Z,100741.34
2022-12-15T07:21:29.577Z,100750.13
2022-12-15T07:26:51.299Z,100754.19
2022-12-15T07:32:13.057Z,100766.47
2022-12-15T07:37:35.311Z,100786.97
2022-12-15T07:42:57.520Z,100783.09
2022-12-15T07:48:19.824Z,100774.59
2022-12-15T07:53:41.679Z,100774.91
2022-12-15T07:59:03.909Z,100765.44
2022-12-15T08:04:25.578Z,100774.84
2022-12-15T08:09:48.555Z,100773.88
2022-12-15T08:15:11.903Z,100779.41
2022-12-15T08:20:34.042Z,100789.50
2022-12-15T08:26:01.587Z,100792.22
2022-12-15T08:31:24.244Z,100796.75
2022-12-15T08:36:45.955Z,100815.47
2022-12-15T08:42:07.629Z,100817.53
2022-12-15T08:47:29.371Z,100822.59
2022-12-15T08:53:21.386Z,100831.38
2022-12-15T08:58:33.576Z,100833.72
2022-12-15T09:03:56.661Z,100848.00
2022-12-15T09:09:18.712Z,100850.84
2022-12-15T09:14:40.434Z,100853.19
2022-12-15T09:20:02.216Z,100858.22
2022-12-15T09:25:23.906Z,100857.94
2022-12-15T09:30:45.646Z,100883.16
2022-12-15T09:36:08.917Z,100876.19
2022-12-15T09:41:33.811Z,100886.69
2022-12-15T09:47:21.895Z,100892.59
2022-12-15T09:52:50.375Z,100897.88
2022-12-15T09:58:33.577Z,100904.19
2022-12-15T10:04:20.282Z,100901.00
2022-12-15T10:09:42.167Z,100891.38
2022-12-15T10:15:18.918Z,100892.59
2022-12-15T10:20:40.869Z,100892.41
2022-12-15T10:26:16.261Z,100892.09
2022-12-15T10:31:43.671Z,100890.28
2022-12-15T10:37:06.129Z,100880.34
2022-12-15T10:42:27.972Z,100888.66
2022-12-15T10:48:04.127Z,100893.50
2022-12-15T10:53:45.408Z,100893.72
2022-12-15T10:59:23.587Z,100897.72
2022-12-15T11:04:59.908Z,100898.22
2022-12-15T11:10:27.928Z,100893.97
2022-12-15T11:15:51.863Z,100882.78
2022-12-15T11:21:27.636Z,100899.72
2022-12-15T11:26:53.297Z,100892.81
2022-12-15T11:32:23.111Z,100891.75
2022-12-15T11:37:48.509Z,100897.81
2022-12-15T11:43:45.469Z,100884.31
2022-12-15T11:49:45.750Z,100865.84
2022-12-15T11:55:18.152Z,100864.28
2022-12-15T12:00:48.988Z,100858.06
2022-12-15T12:06:16.640Z,100856.88
2022-12-15T12:12:12.177Z,100863.97
2022-12-15T12:17:39.240Z,100846.50
2022-12-15T12:23:05.998Z,100846.69
2022-12-15T12:28:46.828Z,100846.72
2022-12-15T12:34:17.958Z,100846.16
2022-12-15T12:39:40.333Z,100842.03
2022-12-15T12:45:02.905Z,100833.50
2022-12-15T12:50:27.506Z,100829.38
2022-12-15T12:55:49.871Z,100819.72
2022-12-15T13:01:13.276Z,100809.09
2022-12-15T13:06:35.101Z,100800.66
2022-12-15T13:12:01.090Z,100803.34
2022-12-15T13:17:39.444Z,100799.00
2022-12-15T13:23:19.785Z,100792.16
2022-12-15T13:28:45.541Z,100784.78
2022-12-15T13:34:15.112Z,100773.28
2022-12-15T13:39:53.147Z,100773.75
2022-12-15T13:45:29.265Z,100765.28
2022-12-15T13:51:09.601Z,100764.56
2022-12-15T13:56:51.621Z,100758.94
2022-12-15T14:02:30.535Z,100744.75
2022-12-15T14:07:56.352Z,100746.63
2022-12-15T14:13:34.834Z,100741.00
2022-12-15T14:19:10.291Z,100747.81
2022-12-15T14:24:41.335Z,100733.03
2022-12-15T14:30:15.075Z,100737.06
2022-12-15T14:35:51.506Z,100744.44
2022-12-15T14:41:22.087Z,100722.13
2022-12-15T14:46:49.920Z,100730.31
2022-12-15T14:52:32.939Z,100720.97
2022-12-15T14:57:54.681Z,100722.63
2022-12-15T15:03:19.956Z,100724.28
2022-12-15T15:08:46.452Z,100717.34
2022-12-15T15:14:20.808Z,100722.31
2022-12-15T15:19:56.714Z,100714.84
2022-12-15T15:25:39.295Z,100721.16
2022-12-15T15:31:10.948Z,100717.69
2022-12-15T15:36:36.370Z,100717.50
2022-12-15T15:42:05.372Z,100717.63
2022-12-15T15:47:27.603Z,100719.38
2022-12-15T15:52:49.326Z,100719.25
2022-12-15T15:58:12.507Z,100736.47
2022-12-15T16:03:35.529Z,100733.09
2022-12-15T16:08:57.369Z,100738.28
2022-12-15T16:14:19.118Z,100740.56
2022-12-15T16:19:40.799Z,100747.78
2022-12-15T16:25:03.060Z,100759.38
2022-12-15T16:30:26.492Z,100753.75
2022-12-15T16:35:49.696Z,100761.75
2022-12-15T16:41:16.171Z,100760.00
2022-12-15T16:46:37.973Z,100759.66
2022-12-15T16:51:59.730Z,100765.13
2022-12-15T16:57:21.579Z,100778.88
2022-12-15T17:02:43.560Z,100767.13
2022-12-15T17:08:07.006Z,100783.13
2022-12-15T17:13:43.572Z,100780.25
2022-12-15T17:19:07.165Z,100791.22
2022-12-15T17:24:28.894Z,100801.31
2022-12-15T17:29:50.657Z,100805.59
2022-12-15T17:35:13.010Z,100816.47
2022-12-15T17:40:34.701Z,100821.59
2022-12-15T17:45:56.438Z,100821.09
2022-12-15T17:51:20.312Z,100831.59
2022-12-15T17:56:43.868Z,100838.63
2022-12-15T18:02:06.137Z,100843.53
2022-12-15T18:07:28.033Z,100841.91
2022-12-15T18:12:49.912Z,100839.53
2022-12-15T18:18:12.211Z,100848.09
2022-12-15T18:23:34.845Z,100843.97
2022-12-15T18:28:56.882Z,100839.13
2022-12-15T18:34:21.531Z,100835.03
2022-12-15T18:39:43.522Z,100857.00
2022-12-15T18:45:15.319Z,100862.75
2022-12-15T18:50:37.021Z,100865.53
2022-12-15T18:56:04.321Z,100860.56
2022-12-15T19:01:26.201Z,100861.91
2022-12-15T19:06:48.164Z,100859.06
2022-12-15T19:12:18.458Z,100874.72
2022-12-15T19:17:58.577Z,100873.81
2022-12-15T19:23:21.247Z,100884.41
2022-12-15T19:28:43.013Z,100882.31
2022-12-15T19:34:04.721Z,100870.72
2022-12-15T19:39:26.789Z,100852.81
2022-12-15T19:44:48.616Z,100846.88
2022-12-15T19:50:25.185Z,100825.56
2022-12-15T19:55:47.293Z,100816.63
2022-12-15T20:01:12.770Z,100839.41
2022-12-15T20:06:34.464Z,100833.84
2022-12-15T20:11:56.120Z,100824.47
2022-12-15T20:17:18.110Z,100835.72
2022-12-15T20:22:40.098Z,100831.63
2022-12-15T20:28:02.101Z,100831.97
2022-12-15T20:33:24.776Z,100833.97
2022-12-15T20:38:47.906Z,100847.72
2022-12-15T20:44:13.130Z,100847.25
2022-12-15T20:49:35.172Z,100835.53
2022-12-15T20:54:56.815Z,100828.28
2022-12-15T21:00:18.741Z,100812.09
2022-12-15T21:05:40.418Z,100813.72
2022-12-15T21:11:24.606Z,100811.38
2022-12-15T21:16:46.561Z,100811.84
2022-12-15T21:22:24.648Z,100818.44
2022-12-15T21:27:46.522Z,100803.22
2022-12-15T21:33:08.635Z,100808.63
2022-12-15T21:38:40.319Z,100814.03
2022-12-15T21:44:02.007Z,100822.44
2022-12-15T21:49:24.509Z,100820.84
2022-12-15T21:54:46.238Z,100823.22
2022-12-15T22:00:12.557Z,100834.44
2022-12-15T22:05:34.343Z,100828.47
2022-12-15T22:10:56.182Z,100836.94
2022-12-15T22:16:18.157Z,100846.19
2022-12-15T22:21:41.818Z,100864.91
2022-12-15T22:27:03.855Z,100852.50
2022-12-15T22:32:25.695Z,100860.09
2022-12-15T22:37:49.710Z,100877.16
2022-12-15T22:43:30.661Z,100878.94
2022-12-15T22:48:54.709Z,100875.75
2022-12-15T22:54:21.888Z,100881.09
2022-12-15T22:59:50.363Z,100890.16
2022-12-15T23:05:17.250Z,100881.41
2022-12-15T23:10:57.851Z,100877.94
2022-12-15T23:16:20.030Z,100888.34
2022-12-15T23:21:41.796Z,100879.38
2022-12-15T23:27:03.594Z,100873.72
2022-12-15T23:32:25.532Z,100886.38
2022-12-15T23:37:47.211Z,100893.75
2022-12-15T23:43:08.912Z,100886.19
2022-12-15T23:48:33.926Z,100889.44
2022-12-15T23:53:55.668Z,100880.19
2022-12-15T23:59:17.653Z,100881.78
